createdAt,value
2018-05-08T00:00:55.634Z,2.35
2018-05-08T00:03:22.967Z,2.35
2018-05-08T00:05:50.301Z,2.20
2018-05-08T00:08:17.656Z,1.90
2018-05-08T00:10:44.957Z,2.10
2018-05-08T00:13:12.618Z,1.85
2018-05-08T00:15:39.918Z,1.90
2018-05-08T00:18:07.230Z,1.98
2018-05-08T00:20:34.574Z,2.00
2018-05-08T00:23:02.318Z,2.08
2018-05-08T00:25:29.691Z,1.80
2018-05-08T00:27:57.014Z,1.95
2018-05-08T00:30:24.338Z,1.90
2018-05-08T00:32:51.672Z,1.90
2018-05-08T00:35:19.031Z,2.00
2018-05-08T00:37:46.329Z,1.90
2018-05-08T00:40:13.659Z,1.90
2018-05-08T00:42:41.302Z,1.80
2018-05-08T00:45:08.631Z,1.70
2018-05-08T00:47:35.945Z,2.00
2018-05-08T00:50:03.277Z,1.60
2018-05-08T00:52:30.586Z,1.80
2018-05-08T00:55:01.035Z,1.80
2018-05-08T00:57:28.400Z,1.90
2018-05-08T00:59:55.725Z,2.00
2018-05-08T01:02:23.415Z,1.85
2018-05-08T01:04:50.845Z,2.20
2018-05-08T01:07:18.106Z,2.00
2018-05-08T01:09:45.447Z,1.90
2018-05-08T01:12:13.139Z,2.00
2018-05-08T01:14:40.694Z,1.90
2018-05-08T01:17:08.039Z,1.83
2018-05-08T01:19:35.377Z,1.95
2018-05-08T01:22:02.700Z,2.00
2018-05-08T01:24:30.011Z,2.00
2018-05-08T01:26:57.684Z,1.98
2018-05-08T01:29:25.019Z,1.97
2018-05-08T01:31:52.329Z,2.10
2018-05-08T01:34:19.947Z,1.95
2018-05-08T01:36:47.306Z,2.03
2018-05-08T01:39:14.605Z,2.10
2018-05-08T01:41:42.213Z,2.12
2018-05-08T01:44:09.529Z,2.30
2018-05-08T01:46:36.859Z,1.80
2018-05-08T01:49:04.203Z,1.70
2018-05-08T01:51:31.497Z,1.80
2018-05-08T01:53:59.094Z,2.00
2018-05-08T01:56:26.455Z,1.95
2018-05-08T01:58:53.780Z,2.00
2018-05-08T02:01:21.102Z,2.20
2018-05-08T02:03:48.458Z,1.80
2018-05-08T02:06:15.795Z,2.10
2018-05-08T02:08:43.429Z,2.40
2018-05-08T02:11:11.010Z,2.00
2018-05-08T02:13:38.335Z,2.30
2018-05-08T02:16:05.671Z,2.10
2018-05-08T02:18:33.368Z,2.20
2018-05-08T02:21:00.699Z,2.40
2018-05-08T02:23:28.027Z,2.35
2018-05-08T02:25:55.414Z,2.20
2018-05-08T02:28:22.993Z,2.80
2018-05-08T02:30:50.672Z,2.50
2018-05-08T02:33:18.002Z,2.40
2018-05-08T02:35:45.340Z,2.55
2018-05-08T02:38:12.654Z,2.30
2018-05-08T02:40:40.209Z,2.50
2018-05-08T02:43:07.844Z,2.40
2018-05-08T02:45:35.153Z,2.30
2018-05-08T02:48:02.511Z,2.40
2018-05-08T02:50:29.826Z,2.80
2018-05-08T02:52:57.170Z,2.58
2018-05-08T02:55:24.527Z,2.60
2018-05-08T02:57:51.837Z,2.70
2018-05-08T03:00:19.429Z,2.30
2018-05-08T03:02:46.756Z,2.50
2018-05-08T03:05:14.134Z,2.70
2018-05-08T03:07:41.460Z,2.40
2018-05-08T03:10:09.165Z,2.50
2018-05-08T03:12:36.462Z,2.33
2018-05-08T03:15:04.074Z,2.60
2018-05-08T03:17:31.464Z,2.00
2018-05-08T03:19:58.800Z,2.50
2018-05-08T03:22:26.227Z,2.53
2018-05-08T03:24:53.521Z,2.65
2018-05-08T03:27:20.858Z,3.25
2018-05-08T03:29:48.150Z,3.10
2018-05-08T03:32:15.767Z,3.20
2018-05-08T03:34:43.071Z,2.80
2018-05-08T03:37:10.395Z,2.83
2018-05-08T03:39:37.713Z,2.80
2018-05-08T03:42:05.051Z,2.83
2018-05-08T03:44:32.645Z,2.80
2018-05-08T03:46:59.995Z,2.83
2018-05-08T03:49:27.310Z,3.20
2018-05-08T03:51:54.634Z,2.90
2018-05-08T03:54:22.227Z,2.90
2018-05-08T03:56:49.926Z,2.90
2018-05-08T03:59:17.221Z,3.08
2018-05-08T04:01:50.791Z,3.10
2018-05-08T04:04:24.287Z,2.70
2018-05-08T04:06:55.828Z,2.80
2018-05-08T04:09:23.399Z,2.90
2018-05-08T04:11:50.739Z,3.58
2018-05-08T04:14:18.419Z,3.20
2018-05-08T04:16:45.714Z,3.37
2018-05-08T04:19:13.049Z,3.08
2018-05-08T04:21:40.690Z,3.00
2018-05-08T04:24:07.985Z,3.00
2018-05-08T04:26:35.320Z,2.62
2018-05-08T04:29:02.646Z,3.30
2018-05-08T04:31:30.314Z,3.47
2018-05-08T04:33:57.671Z,3.58
2018-05-08T04:36:25.018Z,2.90
2018-05-08T04:38:52.356Z,2.90
2018-05-08T04:41:19.661Z,3.20
2018-05-08T04:43:47.011Z,3.35
2018-05-08T04:46:14.314Z,3.30
2018-05-08T04:48:41.903Z,2.95
2018-05-08T04:51:09.229Z,2.90
2018-05-08T04:53:36.541Z,2.62
2018-05-08T04:56:04.169Z,3.00
2018-05-08T04:58:31.532Z,3.10
2018-05-08T05:00:59.193Z,2.85
2018-05-08T05:03:26.858Z,3.28
2018-05-08T05:05:54.411Z,3.12
2018-05-08T05:08:21.759Z,2.95
2018-05-08T05:10:49.440Z,2.90
2018-05-08T05:13:16.771Z,3.00
2018-05-08T05:15:44.397Z,3.40
2018-05-08T05:18:12.005Z,3.35
2018-05-08T05:20:39.568Z,3.50
2018-05-08T05:23:06.890Z,3.10
2018-05-08T05:25:34.482Z,3.25
2018-05-08T05:28:01.821Z,3.45
2018-05-08T05:30:29.186Z,3.35
2018-05-08T05:32:56.485Z,3.45
2018-05-08T05:35:24.106Z,3.50
2018-05-08T05:37:51.439Z,3.45
2018-05-08T05:40:18.770Z,3.17
2018-05-08T05:42:46.115Z,3.20
2018-05-08T05:45:13.463Z,3.40
2018-05-08T05:47:41.090Z,3.30
2018-05-08T05:50:08.650Z,3.87
2018-05-08T05:52:35.954Z,3.22
2018-05-08T05:55:03.314Z,3.10
2018-05-08T05:57:30.643Z,3.50
2018-05-08T05:59:58.016Z,3.43
2018-05-08T06:02:25.636Z,3.33
2018-05-08T06:04:53.204Z,3.58
2018-05-08T06:07:20.850Z,3.30
2018-05-08T06:09:48.166Z,3.30
2018-05-08T06:12:15.462Z,3.10
2018-05-08T06:14:42.790Z,3.50
2018-05-08T06:17:10.483Z,3.20
2018-05-08T06:19:37.782Z,3.40
2018-05-08T06:22:05.114Z,3.10
2018-05-08T06:24:32.421Z,3.33
2018-05-08T06:26:59.773Z,3.60
2018-05-08T06:29:27.093Z,3.50
2018-05-08T06:31:54.712Z,3.50
2018-05-08T06:34:22.375Z,3.10
2018-05-08T06:36:50.041Z,3.30
2018-05-08T06:39:17.342Z,3.50
2018-05-08T06:41:44.959Z,3.70
2018-05-08T06:44:12.313Z,3.07
2018-05-08T06:46:39.680Z,3.50
2018-05-08T06:49:06.950Z,3.40
2018-05-08T06:51:34.283Z,3.50
2018-05-08T06:54:01.832Z,3.58
2018-05-08T06:56:29.498Z,3.50
2018-05-08T06:58:56.847Z,3.28
2018-05-08T07:01:24.515Z,3.20
2018-05-08T07:03:51.817Z,3.10
2018-05-08T07:06:19.176Z,3.90
2018-05-08T07:08:46.481Z,3.70
2018-05-08T07:11:13.800Z,3.35
2018-05-08T07:13:41.110Z,3.80
2018-05-08T07:16:08.584Z,3.40
2018-05-08T07:18:35.772Z,3.53
2018-05-08T07:21:03.108Z,3.83
2018-05-08T07:23:30.709Z,3.65
2018-05-08T07:25:58.076Z,3.70
2018-05-08T07:28:25.621Z,3.67
2018-05-08T07:30:52.959Z,3.45
2018-05-08T07:33:20.275Z,3.70
2018-05-08T07:35:47.890Z,3.30
2018-05-08T07:38:15.219Z,3.90
2018-05-08T07:40:42.825Z,3.70
2018-05-08T07:43:10.173Z,3.40
2018-05-08T07:45:37.531Z,3.40
2018-05-08T07:48:04.895Z,3.45
2018-05-08T07:50:32.429Z,3.20
2018-05-08T07:52:59.760Z,3.40
2018-05-08T07:55:27.349Z,3.50
2018-05-08T07:57:54.686Z,3.60
2018-05-08T08:00:22.059Z,3.30
2018-05-08T08:02:49.623Z,3.92
2018-05-08T08:05:16.958Z,2.80
2018-05-08T08:07:44.275Z,2.80
2018-05-08T08:10:11.613Z,3.00
2018-05-08T08:12:38.938Z,3.00
2018-05-08T08:15:06.271Z,3.17
2018-05-08T08:17:33.607Z,3.00
2018-05-08T08:20:00.963Z,2.92
2018-05-08T08:22:28.295Z,2.90
2018-05-08T08:24:55.918Z,2.60
2018-05-08T08:27:23.255Z,2.87
2018-05-08T08:29:50.692Z,3.10
2018-05-08T08:32:17.937Z,2.90
2018-05-08T08:34:45.242Z,2.55
2018-05-08T08:37:12.598Z,2.70
2018-05-08T08:39:39.895Z,2.62
2018-05-08T08:42:07.200Z,2.70
2018-05-08T08:44:34.542Z,2.78
2018-05-08T08:47:01.846Z,3.00
2018-05-08T08:49:29.219Z,3.30
2018-05-08T08:51:56.546Z,3.20
2018-05-08T08:54:23.851Z,3.10
2018-05-08T08:56:51.433Z,3.30
2018-05-08T08:59:19.001Z,3.10
2018-05-08T09:01:46.355Z,2.60
2018-05-08T09:04:13.661Z,3.33
2018-05-08T09:06:40.991Z,2.67
2018-05-08T09:09:08.623Z,2.40
2018-05-08T09:11:35.922Z,2.40
2018-05-08T09:14:03.270Z,2.30
2018-05-08T09:16:30.614Z,2.30
2018-05-08T09:18:57.955Z,2.22
2018-05-08T09:21:25.282Z,2.70
2018-05-08T09:23:52.587Z,2.00
2018-05-08T09:26:20.210Z,2.15
2018-05-08T09:28:47.771Z,2.20
2018-05-08T09:31:15.078Z,2.28
2018-05-08T09:33:42.528Z,2.30
2018-05-08T09:36:10.141Z,2.00
2018-05-08T09:38:37.810Z,1.90
2018-05-08T09:41:05.134Z,2.03
2018-05-08T09:43:32.447Z,2.20
2018-05-08T09:45:59.762Z,1.83
2018-05-08T09:48:27.330Z,2.10
2018-05-08T09:50:54.679Z,2.37
2018-05-08T09:53:22.246Z,2.22
2018-05-08T09:55:49.573Z,2.10
2018-05-08T09:58:16.939Z,2.00
2018-05-08T10:00:44.279Z,2.20
2018-05-08T10:03:11.979Z,2.30
2018-05-08T10:05:39.639Z,2.30
2018-05-08T10:08:07.020Z,1.97
2018-05-08T10:10:34.551Z,2.10
2018-05-08T10:13:01.919Z,1.90
2018-05-08T10:15:29.250Z,2.15
2018-05-08T10:17:56.822Z,2.30
2018-05-08T10:20:24.154Z,2.10
2018-05-08T10:22:51.737Z,1.95
2018-05-08T10:25:19.095Z,1.90
2018-05-08T10:27:46.435Z,2.00
2018-05-08T10:30:14.034Z,2.00
2018-05-08T10:32:41.671Z,1.70
2018-05-08T10:35:09.336Z,1.80
2018-05-08T10:37:36.928Z,1.90
2018-05-08T10:40:04.311Z,1.70
2018-05-08T10:42:32.436Z,1.70
2018-05-08T10:44:59.779Z,1.70
2018-05-08T10:47:27.334Z,1.50
2018-05-08T10:49:54.646Z,1.70
2018-05-08T10:52:22.017Z,1.80
2018-05-08T10:54:49.718Z,1.87
2018-05-08T10:57:17.017Z,1.70
2018-05-08T10:59:44.329Z,1.80
2018-05-08T11:02:11.895Z,1.80
2018-05-08T11:04:39.259Z,1.60
2018-05-08T11:07:06.794Z,1.55
2018-05-08T11:09:34.090Z,1.85
2018-05-08T11:12:01.709Z,1.80
2018-05-08T11:14:29.043Z,1.90
2018-05-08T11:16:56.766Z,1.70
2018-05-08T11:19:24.091Z,1.80
2018-05-08T11:21:51.402Z,2.05
2018-05-08T11:24:18.735Z,1.80
2018-05-08T11:26:46.160Z,2.10
2018-05-08T11:29:13.479Z,1.90
2018-05-08T11:31:41.061Z,1.90
2018-05-08T11:34:08.362Z,1.92
2018-05-08T11:36:35.978Z,2.10
2018-05-08T11:39:03.555Z,1.80
2018-05-08T11:41:31.198Z,2.20
2018-05-08T11:43:58.538Z,1.90
2018-05-08T11:46:25.874Z,1.90
2018-05-08T11:48:53.219Z,1.80
2018-05-08T11:51:20.581Z,2.10
2018-05-08T11:53:47.952Z,2.20
2018-05-08T11:56:16.340Z,2.10
2018-05-08T11:58:44.300Z,2.30
2018-05-08T12:01:11.759Z,1.90
2018-05-08T12:03:39.073Z,2.25
2018-05-08T12:06:06.500Z,1.95
2018-05-08T12:08:33.855Z,1.85
2018-05-08T12:11:01.160Z,1.90
2018-05-08T12:13:28.768Z,1.90
2018-05-08T12:15:56.152Z,2.12
2018-05-08T12:18:23.497Z,1.85
2018-05-08T12:20:50.810Z,2.08
2018-05-08T12:23:18.377Z,2.00
2018-05-08T12:25:46.461Z,1.90
2018-05-08T12:28:14.128Z,2.12
2018-05-08T12:30:41.505Z,1.90
2018-05-08T12:33:09.148Z,1.90
2018-05-08T12:35:36.930Z,1.93
2018-05-08T12:38:04.249Z,1.80
2018-05-08T12:40:32.660Z,1.90
2018-05-08T12:43:00.306Z,2.00
2018-05-08T12:45:27.835Z,1.80
2018-05-08T12:47:55.179Z,1.90
2018-05-08T12:50:22.525Z,1.90
2018-05-08T12:52:49.924Z,1.80
2018-05-08T12:55:17.262Z,1.83
2018-05-08T12:57:44.914Z,1.90
2018-05-08T13:00:12.279Z,1.70
2018-05-08T13:02:39.763Z,1.60
2018-05-08T13:05:08.683Z,2.20
2018-05-08T13:07:36.622Z,1.90
2018-05-08T13:10:04.094Z,1.70
2018-05-08T13:12:31.509Z,1.80
2018-05-08T13:14:59.415Z,1.60
2018-05-08T13:17:26.834Z,1.70
2018-05-08T13:19:54.318Z,2.00
2018-05-08T13:22:21.743Z,1.60
2018-05-08T13:24:49.446Z,1.60
2018-05-08T13:27:16.824Z,1.80
2018-05-08T13:29:44.182Z,1.60
2018-05-08T13:32:11.482Z,1.70
2018-05-08T13:34:39.068Z,1.70
2018-05-08T13:37:06.623Z,1.90
2018-05-08T13:39:33.963Z,1.58
2018-05-08T13:42:01.323Z,1.58
2018-05-08T13:44:28.595Z,1.70
2018-05-08T13:46:55.924Z,1.65
2018-05-08T13:49:23.262Z,1.45
2018-05-08T13:51:50.573Z,1.83
2018-05-08T13:54:17.870Z,1.60
2018-05-08T13:56:45.186Z,1.50
2018-05-08T13:59:12.518Z,1.50
2018-05-08T14:01:39.849Z,1.80
2018-05-08T14:04:07.150Z,1.70
2018-05-08T14:06:34.884Z,1.40
2018-05-08T14:09:02.151Z,1.40
2018-05-08T14:11:29.467Z,1.48
2018-05-08T14:13:57.163Z,1.67
2018-05-08T14:16:24.495Z,1.50
2018-05-08T14:18:51.810Z,1.50
2018-05-08T14:21:19.431Z,1.65
2018-05-08T14:23:46.728Z,1.50
2018-05-08T14:26:14.053Z,1.50
2018-05-08T14:28:41.356Z,1.60
2018-05-08T14:31:08.748Z,1.90
2018-05-08T14:33:36.306Z,2.28
2018-05-08T14:38:37.456Z,1.90
2018-05-08T14:41:05.032Z,1.42
2018-05-08T14:43:32.665Z,1.80
2018-05-08T14:46:00.146Z,1.50
2018-05-08T14:48:27.815Z,1.55
2018-05-08T14:50:55.182Z,1.60
2018-05-08T14:53:22.831Z,1.60
2018-05-08T14:55:50.412Z,5.57
2018-05-08T14:58:17.771Z,2.60
2018-05-08T15:00:45.088Z,2.83
2018-05-08T15:03:12.414Z,1.20
2018-05-08T15:05:39.721Z,1.60
2018-05-08T15:08:07.063Z,1.40
2018-05-08T15:10:34.376Z,1.50
2018-05-08T15:13:01.704Z,1.45
2018-05-08T15:15:29.071Z,1.40
2018-05-08T15:17:56.404Z,1.40
2018-05-08T15:20:23.945Z,1.12
2018-05-08T15:22:51.504Z,1.70
2018-05-08T15:25:19.064Z,1.30
2018-05-08T15:27:46.622Z,1.50
2018-05-08T15:30:13.950Z,1.30
2018-05-08T15:32:41.283Z,1.20
2018-05-08T15:35:08.891Z,1.20
2018-05-08T15:37:38.544Z,1.60
2018-05-08T15:40:06.838Z,1.50
2018-05-08T15:42:34.174Z,1.30
2018-05-08T15:45:01.517Z,1.40
2018-05-08T15:47:28.858Z,1.20
2018-05-08T15:49:56.157Z,1.40
2018-05-08T15:52:23.505Z,1.42
2018-05-08T15:54:50.806Z,1.40
2018-05-08T15:57:18.239Z,1.30
2018-05-08T15:59:45.827Z,1.20
2018-05-08T16:02:13.312Z,1.33
2018-05-08T16:04:40.637Z,1.40
2018-05-08T16:07:09.911Z,1.50
2018-05-08T16:09:37.511Z,1.60
2018-05-08T16:12:04.919Z,1.58
2018-05-08T16:14:32.292Z,1.42
2018-05-08T16:16:59.671Z,1.40
2018-05-08T16:19:26.965Z,1.30
2018-05-08T16:21:54.339Z,1.30
2018-05-08T16:24:21.703Z,1.20
2018-05-08T16:26:49.043Z,1.40
2018-05-08T16:29:16.449Z,1.40
2018-05-08T16:31:45.884Z,1.50
2018-05-08T16:34:13.320Z,1.50
2018-05-08T16:36:40.815Z,1.53
2018-05-08T16:39:08.122Z,1.30
2018-05-08T16:41:35.557Z,1.30
2018-05-08T16:44:02.946Z,1.30
2018-05-08T16:46:30.415Z,2.70
2018-05-08T16:48:57.870Z,2.83
2018-05-08T16:51:25.624Z,4.00
2018-05-08T16:53:53.014Z,1.77
2018-05-08T16:56:20.619Z,1.65
2018-05-08T16:58:47.999Z,1.50
2018-05-08T17:01:15.348Z,1.40
2018-05-08T17:03:42.642Z,1.60
2018-05-08T17:06:10.012Z,1.60
2018-05-08T17:08:37.320Z,1.52
2018-05-08T17:11:04.622Z,1.40
2018-05-08T17:13:31.984Z,1.40
2018-05-08T17:15:59.329Z,1.60
2018-05-08T17:18:27.504Z,1.40
2018-05-08T17:20:54.806Z,1.40
2018-05-08T17:23:22.160Z,1.30
2018-05-08T17:25:49.527Z,1.80
2018-05-08T17:28:16.840Z,1.40
2018-05-08T17:30:44.195Z,1.33
2018-05-08T17:33:11.540Z,1.40
2018-05-08T17:35:39.130Z,1.30
2018-05-08T17:38:06.695Z,1.37
2018-05-08T17:40:34.255Z,1.30
2018-05-08T17:43:01.608Z,1.30
2018-05-08T17:45:29.811Z,1.30
2018-05-08T17:47:57.447Z,1.30
2018-05-08T17:50:24.873Z,1.25
2018-05-08T17:52:52.174Z,1.50
2018-05-08T17:55:19.498Z,1.60
2018-05-08T17:57:46.803Z,1.42
2018-05-08T18:00:14.102Z,1.30
2018-05-08T18:02:41.451Z,1.80
2018-05-08T18:05:08.754Z,1.60
2018-05-08T18:07:36.144Z,1.40
2018-05-08T18:10:03.465Z,1.50
2018-05-08T18:12:30.758Z,1.42
2018-05-08T18:14:58.453Z,1.70
2018-05-08T18:17:26.149Z,1.77
2018-05-08T18:19:53.783Z,1.62
2018-05-08T18:22:21.335Z,1.60
2018-05-08T18:24:48.899Z,1.70
2018-05-08T18:27:16.225Z,1.60
2018-05-08T18:29:43.526Z,1.60
2018-05-08T18:32:10.840Z,1.80
2018-05-08T18:34:38.203Z,1.48
2018-05-08T18:37:05.505Z,1.70
2018-05-08T18:39:33.139Z,1.80
2018-05-08T18:42:00.697Z,1.77
2018-05-08T18:44:28.019Z,1.60
2018-05-08T18:46:55.359Z,1.60
2018-05-08T18:49:22.978Z,1.70
2018-05-08T18:51:50.281Z,1.70
2018-05-08T18:54:17.623Z,2.00
2018-05-08T18:56:44.971Z,1.70
2018-05-08T18:59:12.286Z,2.00
2018-05-08T19:01:39.948Z,2.20
2018-05-08T19:04:07.279Z,2.20
2018-05-08T19:06:34.626Z,2.10
2018-05-08T19:09:01.983Z,2.00
2018-05-08T19:11:35.272Z,2.30
2018-05-08T19:14:02.862Z,2.50
2018-05-08T19:16:30.188Z,2.10
2018-05-08T19:19:03.516Z,2.12
2018-05-08T19:21:30.876Z,2.20
2018-05-08T19:24:03.932Z,2.23
2018-05-08T19:26:31.324Z,2.10
2018-05-08T19:29:04.313Z,2.20
2018-05-08T19:31:31.629Z,2.50
2018-05-08T19:33:59.219Z,2.10
2018-05-08T19:36:32.120Z,2.42
2018-05-08T19:38:59.494Z,2.23
2018-05-08T19:41:26.815Z,2.35
2018-05-08T19:43:54.122Z,2.20
2018-05-08T19:46:21.434Z,2.40
2018-05-08T19:48:48.738Z,2.08
2018-05-08T19:51:16.095Z,2.40
2018-05-08T19:53:43.642Z,2.00
2018-05-08T19:56:11.227Z,2.23
2018-05-08T19:58:38.634Z,2.50
2018-05-08T20:01:06.195Z,2.20
2018-05-08T20:03:33.566Z,2.20
2018-05-08T20:06:01.133Z,2.60
2018-05-08T20:08:28.430Z,2.10
2018-05-08T20:10:55.737Z,2.30
2018-05-08T20:13:23.307Z,2.10
2018-05-08T20:15:50.676Z,2.30
2018-05-08T20:18:18.197Z,2.00
2018-05-08T20:20:45.502Z,2.20
2018-05-08T20:23:13.041Z,2.58
2018-05-08T20:25:40.599Z,2.20
2018-05-08T20:28:07.934Z,2.10
2018-05-08T20:30:35.329Z,2.20
2018-05-08T20:33:02.663Z,2.50
2018-05-08T20:35:29.998Z,2.40
2018-05-08T20:37:57.331Z,2.30
2018-05-08T20:40:24.683Z,2.33
2018-05-08T20:42:52.226Z,2.30
2018-05-08T20:45:19.791Z,2.40
2018-05-08T20:47:47.103Z,2.10
2018-05-08T20:50:14.436Z,2.20
2018-05-08T20:52:41.981Z,2.20
2018-05-08T20:55:09.307Z,2.10
2018-05-08T20:57:36.644Z,2.03
2018-05-08T21:00:03.965Z,2.80
2018-05-08T21:02:31.304Z,2.10
2018-05-08T21:04:58.629Z,2.10
2018-05-08T21:07:26.190Z,2.80
2018-05-08T21:09:53.493Z,4.43
2018-05-08T21:12:21.088Z,2.40
2018-05-08T21:14:48.663Z,2.25
2018-05-08T21:17:16.330Z,3.08
2018-05-08T21:19:43.660Z,3.30
2018-05-08T21:22:11.351Z,2.90
2018-05-08T21:24:38.747Z,2.65
2018-05-08T21:27:06.058Z,2.50
2018-05-08T21:29:39.175Z,3.07
2018-05-08T21:32:06.473Z,2.60
2018-05-08T21:34:33.786Z,2.70
2018-05-08T21:37:01.114Z,3.12
2018-05-08T21:39:28.776Z,2.70
2018-05-08T21:41:56.719Z,3.33
2018-05-08T21:44:24.312Z,3.10
2018-05-08T21:46:51.650Z,3.28
2018-05-08T21:49:19.322Z,3.25
2018-05-08T21:51:46.853Z,3.08
2018-05-08T21:54:14.543Z,3.08
2018-05-08T21:56:41.871Z,3.30
2018-05-08T21:59:10.312Z,3.20
2018-05-08T22:01:37.804Z,3.00
2018-05-08T22:04:05.264Z,2.62
2018-05-08T22:06:33.954Z,3.00
2018-05-08T22:09:01.377Z,2.85
2018-05-08T22:11:30.534Z,2.95
2018-05-08T22:14:01.838Z,3.10
2018-05-08T22:16:29.548Z,3.10
2018-05-08T22:18:56.858Z,2.90
2018-05-08T22:21:24.565Z,2.92
2018-05-08T22:23:55.577Z,2.90
2018-05-08T22:26:23.566Z,2.67
2018-05-08T22:28:51.240Z,2.80
2018-05-08T22:31:18.794Z,2.90
2018-05-08T22:33:46.112Z,2.90
2018-05-08T22:36:13.437Z,3.00
2018-05-08T22:38:40.778Z,2.80
2018-05-08T22:41:08.106Z,2.60
2018-05-08T22:43:35.448Z,2.90
2018-05-08T22:46:02.776Z,2.58
2018-05-08T22:48:35.961Z,3.08
2018-05-08T22:51:04.347Z,2.90
2018-05-08T22:53:31.693Z,2.80
2018-05-08T22:55:59.084Z,2.90
2018-05-08T22:58:26.435Z,3.10
2018-05-08T23:00:53.835Z,2.80
2018-05-08T23:03:21.291Z,2.65
2018-05-08T23:05:48.655Z,2.60
2018-05-08T23:08:15.982Z,2.90
2018-05-08T23:10:43.276Z,2.65
2018-05-08T23:13:10.693Z,2.60
2018-05-08T23:15:38.253Z,2.67
2018-05-08T23:18:05.698Z,2.72
2018-05-08T23:20:33.352Z,2.80
2018-05-08T23:23:01.838Z,2.62
2018-05-08T23:25:29.184Z,2.60
2018-05-08T23:27:56.590Z,3.05
2018-05-08T23:30:23.898Z,2.60
2018-05-08T23:32:51.217Z,2.60
2018-05-08T23:35:18.893Z,3.00
2018-05-08T23:37:46.251Z,2.70
2018-05-08T23:40:13.608Z,2.80
2018-05-08T23:42:40.977Z,2.60
2018-05-08T23:45:08.540Z,2.70
2018-05-08T23:47:36.493Z,2.75
2018-05-08T23:50:03.856Z,2.62
2018-05-08T23:52:31.207Z,2.87
2018-05-08T23:54:58.830Z,3.00
2018-05-08T23:57:26.154Z,2.80
2018-05-08T23:59:53.466Z,2.50
